Terminal Aerodrome Forecast
Issued by NWS Quad Cities IA IL

Home | Current Version | Previous Version | Text Only | Print | Product List | Glossary On
Versions: 1 2 3 4 5 6 7 8 9 10 11 12 13 14
000
FTUS43 KDVN 242352
TAFDBQ
TAF
KDBQ 242352Z 2500/2524 09010KT 4SM -SHRA BR BKN080
      TEMPO 2500/2502 2SM TSRA BR OVC015CB
     FM250700 16007KT 2SM -SHRA BR BKN009 OVC012
     FM251400 24015G25KT 5SM BR VCSH BKN020=

USA.gov is the U.S. government's official web portal to all federal, state and local government web resources and services.